Time;durP1;ratioP1;P1;durP2;ratioP2;P2;SDS_P1;SDS_P2;PMS_P1;PMS_P2;Temp;Humidity;BMP_temperature;BMP_pressure;BME280_temperature;BME280_humidity;BME280_pressure;Samples;Min_cycle;Max_cycle;Signal;HPM_P1;HPM_P2
2022/10/31 00:00:58;;;;;;;26.43;21.87;;;13.30;1.00;;;;;;5089236;28;20444;-58
2022/10/31 00:03:24;;;;;;;27.80;21.60;;;13.40;1.00;;;;;;5088005;28;20451;-59
2022/10/31 00:05:50;;;;;;;29.10;22.60;;;13.30;1.00;;;;;;5089762;28;20458;-59
2022/10/31 00:08:17;;;;;;;28.53;22.70;;;13.30;1.00;;;;;;5090047;28;20482;-59
2022/10/31 00:10:44;;;;;;;27.77;22.20;;;13.30;1.00;;;;;;5089067;28;20475;-59
2022/10/31 00:13:11;;;;;;;28.93;22.13;;;13.30;1.00;;;;;;5092277;28;20777;-59
2022/10/31 00:15:38;;;;;;;32.00;23.00;;;13.20;1.00;;;;;;5091775;28;20456;-58
2022/10/31 00:18:05;;;;;;;26.07;22.10;;;13.20;1.00;;;;;;5091233;28;20815;-58
2022/10/31 00:20:31;;;;;;;31.03;22.73;;;13.20;1.00;;;;;;5104831;28;20524;-59
2022/10/31 00:23:04;;;;;;;26.87;22.13;;;13.20;1.00;;;;;;5092590;28;20842;-58
2022/10/31 00:25:35;;;;;;;28.97;22.57;;;13.20;1.00;;;;;;5092558;28;20219;-60
2022/10/31 00:28:01;;;;;;;31.63;23.80;;;11.10;1.00;;;;;;5087374;28;20492;-60
2022/10/31 00:30:26;;;;;;;31.70;23.70;;;13.20;1.00;;;;;;5091929;28;20454;-59
2022/10/31 00:32:52;;;;;;;30.00;21.10;;;13.20;1.00;;;;;;5087096;28;20204;-59
2022/10/31 00:35:17;;;;;;;29.80;22.83;;;13.00;1.00;;;;;;5085267;28;20236;-59
2022/10/31 00:37:43;;;;;;;29.13;22.80;;;13.10;1.00;;;;;;5092230;28;20193;-59
2022/10/31 00:40:09;;;;;;;31.40;22.73;;;13.10;1.00;;;;;;5089624;28;20201;-57
2022/10/31 00:42:35;;;;;;;32.87;22.10;;;13.10;1.00;;;;;;5092707;28;20204;-59
2022/10/31 00:45:00;;;;;;;27.57;22.50;;;13.10;1.00;;;;;;5091693;28;20838;-58
2022/10/31 00:47:26;;;;;;;32.37;22.80;;;13.10;1.00;;;;;;5088497;28;20657;-59
2022/10/31 00:49:52;;;;;;;29.20;21.40;;;13.10;1.00;;;;;;5090532;28;20590;-58
2022/10/31 00:52:18;;;;;;;27.60;22.07;;;13.10;1.00;;;;;;5092027;28;20220;-58
2022/10/31 00:54:44;;;;;;;29.10;22.10;;;13.10;1.00;;;;;;5089567;28;20828;-59
2022/10/31 00:57:10;;;;;;;29.27;21.87;;;;;;;;;;5089386;28;20194;-59
2022/10/31 00:59:35;;;;;;;28.60;22.10;;;13.10;1.00;;;;;;5091181;28;20193;-59
2022/10/31 01:02:01;;;;;;;25.80;20.90;;;13.10;1.00;;;;;;5086597;28;20509;-59
2022/10/31 01:04:26;;;;;;;26.07;22.37;;;13.00;1.00;;;;;;5089982;28;20198;-59
2022/10/31 01:06:52;;;;;;;27.43;21.27;;;12.90;1.00;;;;;;5086728;28;20217;-58
2022/10/31 01:09:17;;;;;;;25.17;19.60;;;12.90;1.00;;;;;;5085473;28;20186;-58
2022/10/31 01:11:43;;;;;;;27.90;20.70;;;;;;;;;;5117708;27;20186;-57
2022/10/31 01:14:10;;;;;;;31.70;22.87;;;12.90;1.00;;;;;;5086072;28;20216;-58
2022/10/31 01:16:35;;;;;;;32.37;22.83;;;12.90;1.00;;;;;;5079362;28;20467;-59
2022/10/31 01:19:01;;;;;;;30.30;20.83;;;12.80;1.00;;;;;;5084014;28;20451;-60
2022/10/31 01:21:28;;;;;;;25.00;20.27;;;12.80;1.00;;;;;;5084586;28;20201;-59
2022/10/31 01:23:55;;;;;;;35.30;21.80;;;12.80;1.00;;;;;;5085381;28;20222;-59
2022/10/31 01:26:26;;;;;;;26.10;21.70;;;12.80;1.00;;;;;;5089474;28;21034;-59
2022/10/31 01:28:53;;;;;;;25.33;20.77;;;12.80;1.00;;;;;;5089199;28;20773;-58
2022/10/31 01:31:21;;;;;;;28.90;20.20;;;12.80;1.00;;;;;;5085522;28;21009;-59
2022/10/31 01:33:47;;;;;;;30.17;20.93;;;12.80;1.00;;;;;;5087660;28;20440;-59
2022/10/31 01:36:19;;;;;;;29.17;21.37;;;12.80;1.00;;;;;;5091805;28;20453;-58
2022/10/31 01:38:47;;;;;;;29.13;21.63;;;12.80;1.00;;;;;;5090498;28;20442;-59
2022/10/31 01:41:17;;;;;;;27.27;21.50;;;12.80;1.00;;;;;;5090268;28;20458;-58
2022/10/31 01:43:51;;;;;;;23.43;19.57;;;12.70;1.00;;;;;;5083007;28;20467;-59
2022/10/31 01:46:43;;;;;;;24.97;20.73;;;12.70;1.00;;;;;;5081176;28;21053;-59
2022/10/31 01:49:18;;;;;;;26.00;19.97;;;12.70;1.00;;;;;;5084621;28;20434;-59
2022/10/31 01:51:54;;;;;;;27.67;20.77;;;12.70;1.00;;;;;;5090559;28;20482;-59
2022/10/31 01:54:23;;;;;;;28.00;20.50;;;12.70;1.00;;;;;;5087305;28;20466;-59
2022/10/31 01:56:52;;;;;;;26.60;21.30;;;12.60;1.00;;;;;;5088410;28;20800;-59
2022/10/31 01:59:20;;;;;;;25.03;19.53;;;12.70;1.00;;;;;;5090925;28;20474;-59
2022/10/31 02:01:48;;;;;;;23.23;20.13;;;12.60;1.00;;;;;;5090796;28;20418;-59
2022/10/31 02:04:15;;;;;;;28.13;20.13;;;12.60;1.00;;;;;;5086253;28;20423;-58
2022/10/31 02:06:57;;;;;;;26.67;20.80;;;12.50;1.00;;;;;;5089806;28;20438;-59
2022/10/31 02:09:24;;;;;;;22.43;19.30;;;12.60;1.00;;;;;;5088495;28;20448;-60
2022/10/31 02:11:56;;;;;;;24.57;19.53;;;12.50;1.00;;;;;;5089058;28;20417;-60
2022/10/31 02:14:24;;;;;;;23.53;19.40;;;12.60;1.00;;;;;;5087333;28;20863;-58
2022/10/31 02:16:50;;;;;;;26.43;19.00;;;12.60;1.00;;;;;;5091220;28;20497;-59
2022/10/31 02:19:24;;;;;;;27.87;19.43;;;12.60;1.00;;;;;;5089694;28;20900;-59
2022/10/31 02:21:58;;;;;;;25.13;19.10;;;12.60;1.00;;;;;;5089179;28;20189;-59
2022/10/31 02:24:30;;;;;;;25.13;18.77;;;12.60;1.00;;;;;;5091692;28;20451;-60
2022/10/31 02:27:17;;;;;;;24.90;20.03;;;12.50;1.00;;;;;;5089548;28;20465;-59
2022/10/31 02:30:11;;;;;;;24.83;19.87;;;12.50;1.00;;;;;;5089369;28;20443;-59
2022/10/31 02:32:49;;;;;;;26.40;20.20;;;12.50;1.00;;;;;;5086974;28;20497;-58
2022/10/31 02:35:23;;;;;;;29.00;18.50;;;12.50;1.00;;;;;;5089269;28;20499;-59
2022/10/31 02:38:11;;;;;;;26.53;20.37;;;12.40;1.00;;;;;;5089473;28;20447;-59
2022/10/31 02:40:52;;;;;;;24.97;19.17;;;12.50;1.00;;;;;;5085884;28;20470;-58
2022/10/31 02:43:27;;;;;;;25.37;19.00;;;12.40;1.00;;;;;;5085947;28;20443;-59
2022/10/31 02:45:59;;;;;;;25.77;20.07;;;12.40;1.00;;;;;;5087291;28;20443;-58
2022/10/31 02:48:28;;;;;;;24.40;20.00;;;12.40;1.00;;;;;;5090240;28;20442;-59
2022/10/31 02:51:02;;;;;;;27.73;19.33;;;12.40;1.00;;;;;;5088963;28;20497;-60
2022/10/31 02:53:33;;;;;;;26.50;18.70;;;12.30;1.00;;;;;;5090169;28;20461;-58
2022/10/31 02:56:05;;;;;;;22.73;18.73;;;12.40;1.00;;;;;;5091100;28;20444;-58
2022/10/31 02:58:36;;;;;;;30.77;21.03;;;12.40;1.00;;;;;;5091181;28;20454;-59
2022/10/31 03:01:34;;;;;;;30.60;20.90;;;12.40;1.00;;;;;;5086151;28;20445;-58
2022/10/31 03:04:27;;;;;;;25.40;20.10;;;12.30;1.00;;;;;;5090874;28;20411;-58
2022/10/31 03:06:53;;;;;;;25.57;17.93;;;;;;;;;;5092858;28;20441;-58
2022/10/31 03:09:55;;;;;;;21.83;17.97;;;12.30;1.00;;;;;;5089343;28;20486;-60
2022/10/31 03:12:29;;;;;;;23.50;18.90;;;12.40;1.00;;;;;;5091089;28;20957;-58
2022/10/31 03:15:42;;;;;;;23.13;18.50;;;12.50;1.00;;;;;;5091776;28;20533;-58
2022/10/31 03:18:30;;;;;;;24.37;18.13;;;12.20;1.00;;;;;;5086070;28;20956;-59
2022/10/31 03:21:04;;;;;;;26.07;18.83;;;12.30;1.00;;;;;;5086327;28;20425;-58
2022/10/31 03:23:33;;;;;;;20.93;18.30;;;12.30;1.00;;;;;;5093866;28;20446;-58
2022/10/31 03:26:02;;;;;;;22.40;18.63;;;12.20;1.00;;;;;;5088135;28;20471;-57
2022/10/31 03:28:34;;;;;;;19.97;17.63;;;12.20;1.00;;;;;;5092982;28;20527;-58
2022/10/31 03:31:03;;;;;;;20.23;17.10;;;12.20;1.00;;;;;;5089847;28;20507;-58
2022/10/31 03:33:32;;;;;;;23.13;17.10;;;12.20;1.00;;;;;;5093410;28;20429;-60
2022/10/31 03:36:02;;;;;;;20.80;16.93;;;12.20;1.00;;;;;;5085639;28;20447;-59
2022/10/31 03:38:29;;;;;;;23.13;18.10;;;12.10;1.00;;;;;;5091255;28;20475;-59
2022/10/31 03:40:57;;;;;;;21.40;17.60;;;12.10;1.00;;;;;;5088873;28;20488;-59
2022/10/31 03:43:28;;;;;;;24.47;16.23;;;12.10;1.00;;;;;;5088460;28;20423;-59
2022/10/31 03:45:54;;;;;;;21.37;16.90;;;12.00;1.00;;;;;;5091063;28;20966;-59
2022/10/31 03:48:21;;;;;;;21.77;16.03;;;12.00;1.00;;;;;;5092040;28;20538;-59
2022/10/31 03:50:55;;;;;;;19.83;16.57;;;11.90;1.00;;;;;;5092560;28;20498;-58
2022/10/31 03:53:28;;;;;;;20.63;16.03;;;12.00;1.00;;;;;;5089456;28;20476;-60
2022/10/31 03:56:08;;;;;;;24.70;17.80;;;11.90;1.00;;;;;;5094744;28;20426;-60
2022/10/31 03:58:39;;;;;;;18.87;16.90;;;11.90;1.00;;;;;;5092703;28;20472;-59
2022/10/31 04:01:09;;;;;;;28.63;18.00;;;11.90;1.00;;;;;;5089918;28;20421;-58
2022/10/31 04:03:37;;;;;;;20.40;15.70;;;11.90;1.00;;;;;;5091084;28;20544;-59
2022/10/31 04:06:08;;;;;;;17.43;14.87;;;11.80;1.00;;;;;;5088242;28;20921;-58
2022/10/31 04:08:39;;;;;;;19.63;15.00;;;11.80;1.00;;;;;;5084877;28;20415;-58
2022/10/31 04:11:08;;;;;;;25.67;16.57;;;11.90;1.00;;;;;;5090744;28;20869;-58
2022/10/31 04:13:36;;;;;;;20.87;16.10;;;11.90;1.00;;;;;;5090052;28;20439;-59
2022/10/31 04:16:02;;;;;;;18.53;15.50;;;11.80;1.00;;;;;;5082258;28;20845;-59
2022/10/31 04:18:28;;;;;;;19.43;17.43;;;11.80;1.00;;;;;;5089490;28;20509;-59
2022/10/31 04:21:02;;;;;;;22.20;17.30;;;11.90;1.00;;;;;;5091153;28;20443;-60
2022/10/31 04:23:29;;;;;;;17.80;16.00;;;11.80;1.00;;;;;;5092220;28;20246;-58
2022/10/31 04:25:54;;;;;;;19.73;16.00;;;11.80;1.00;;;;;;5086463;28;20468;-60
2022/10/31 04:28:20;;;;;;;19.33;16.00;;;11.90;1.00;;;;;;5090502;28;20465;-59
2022/10/31 04:30:45;;;;;;;19.13;17.07;;;11.80;1.00;;;;;;5092735;28;20189;-57
2022/10/31 04:33:11;;;;;;;18.07;16.10;;;11.80;1.00;;;;;;5093117;28;20186;-59
2022/10/31 04:35:36;;;;;;;19.73;16.80;;;11.70;1.00;;;;;;5090433;28;20186;-59
2022/10/31 04:38:02;;;;;;;24.10;17.23;;;11.70;1.00;;;;;;5091374;28;20192;-59
2022/10/31 04:40:28;;;;;;;18.20;16.23;;;11.80;1.00;;;;;;5088539;28;20189;-59
2022/10/31 04:42:53;;;;;;;17.30;15.60;;;11.70;1.00;;;;;;5091727;28;20188;-58
2022/10/31 04:45:19;;;;;;;18.23;14.63;;;11.70;1.00;;;;;;5092400;28;20186;-59
2022/10/31 04:47:44;;;;;;;20.63;16.13;;;11.70;1.00;;;;;;5091731;28;20221;-59
2022/10/31 04:50:10;;;;;;;17.70;15.80;;;11.70;1.00;;;;;;5088817;28;20178;-59
2022/10/31 04:52:40;;;;;;;17.77;15.83;;;11.60;1.00;;;;;;5092277;28;20230;-59
2022/10/31 04:55:06;;;;;;;19.97;15.77;;;11.60;1.00;;;;;;5091563;28;20181;-58
2022/10/31 04:57:32;;;;;;;22.30;16.57;;;11.60;1.00;;;;;;5092402;28;20441;-58
2022/10/31 04:59:57;;;;;;;18.77;13.97;;;11.70;1.00;;;;;;5089519;28;21002;-60
2022/10/31 05:02:23;;;;;;;18.00;16.10;;;11.70;1.00;;;;;;5090940;28;20187;-59
2022/10/31 05:04:49;;;;;;;17.80;15.93;;;11.60;1.00;;;;;;5090817;28;20847;-60
2022/10/31 05:07:14;;;;;;;20.20;15.40;;;11.50;1.00;;;;;;5088844;28;20675;-58
2022/10/31 05:09:40;;;;;;;16.43;14.73;;;11.50;1.00;;;;;;5086895;28;20189;-58
2022/10/31 05:12:05;;;;;;;20.17;15.67;;;11.60;1.00;;;;;;5092303;28;20186;-59
2022/10/31 05:14:31;;;;;;;19.30;15.27;;;;;;;;;;5086688;28;20294;-59
2022/10/31 05:16:57;;;;;;;20.07;16.23;;;11.50;1.00;;;;;;5090793;28;20184;-58
2022/10/31 05:19:22;;;;;;;21.70;15.63;;;11.50;1.00;;;;;;5090803;28;20479;-60
2022/10/31 05:21:48;;;;;;;18.20;14.73;;;11.60;1.00;;;;;;5090507;28;20285;-58
2022/10/31 05:24:14;;;;;;;18.17;14.50;;;;;;;;;;5089925;28;20193;-59
2022/10/31 05:26:39;;;;;;;17.20;14.90;;;11.50;1.00;;;;;;5090276;28;20271;-59
2022/10/31 05:29:05;;;;;;;15.70;14.00;;;11.50;1.00;;;;;;5090337;28;20423;-58
2022/10/31 05:31:30;;;;;;;15.43;13.80;;;11.50;1.00;;;;;;5091433;28;20232;-58
2022/10/31 05:33:56;;;;;;;16.80;14.20;;;11.40;1.00;;;;;;5089951;28;20200;-59
2022/10/31 05:36:21;;;;;;;18.53;13.70;;;11.50;1.00;;;;;;5087448;28;20215;-59
2022/10/31 05:38:47;;;;;;;19.80;15.17;;;11.40;1.00;;;;;;5091393;28;20272;-58
2022/10/31 05:41:12;;;;;;;18.93;14.07;;;11.40;1.00;;;;;;5090532;28;20215;-58
2022/10/31 05:43:38;;;;;;;17.27;14.70;;;11.40;1.00;;;;;;5088671;28;20208;-60
2022/10/31 05:46:04;;;;;;;17.93;14.87;;;11.40;1.00;;;;;;5083602;28;20198;-59
2022/10/31 05:48:29;;;;;;;15.17;13.63;;;11.40;1.00;;;;;;5090016;28;20242;-57
2022/10/31 05:50:55;;;;;;;18.30;14.23;;;11.30;1.00;;;;;;5090222;28;20194;-57
2022/10/31 05:53:20;;;;;;;18.93;13.77;;;11.30;1.00;;;;;;5089363;28;20225;-58
2022/10/31 05:55:46;;;;;;;16.00;13.60;;;11.30;1.00;;;;;;5089487;28;20669;-58
2022/10/31 05:58:12;;;;;;;15.53;13.73;;;11.30;1.00;;;;;;5091067;28;20241;-60
2022/10/31 06:00:38;;;;;;;15.93;14.20;;;11.20;1.00;;;;;;5087533;28;20716;-59
2022/10/31 06:03:08;;;;;;;15.20;13.60;;;11.30;1.00;;;;;;5087882;28;20187;-59
2022/10/31 06:05:34;;;;;;;20.37;15.57;;;11.30;1.00;;;;;;5090808;28;20210;-60
2022/10/31 06:08:00;;;;;;;16.67;13.20;;;11.30;1.00;;;;;;5090071;28;20471;-60
2022/10/31 06:10:26;;;;;;;16.37;13.50;;;11.30;1.00;;;;;;5089910;28;20204;-59
2022/10/31 06:12:52;;;;;;;16.30;13.90;;;11.30;1.00;;;;;;5088955;28;20835;-58
2022/10/31 06:15:18;;;;;;;14.27;12.87;;;11.30;1.00;;;;;;5088959;28;20541;-58
2022/10/31 06:17:43;;;;;;;15.97;13.77;;;11.30;1.00;;;;;;5090119;28;20185;-58
2022/10/31 06:20:09;;;;;;;16.53;12.33;;;11.40;1.00;;;;;;5090075;28;20185;-59
2022/10/31 06:22:35;;;;;;;16.00;13.93;;;11.30;1.00;;;;;;5087887;28;20334;-59
2022/10/31 06:25:01;;;;;;;13.83;12.60;;;11.30;1.00;;;;;;5090438;28;20469;-59
2022/10/31 06:27:27;;;;;;;15.03;13.40;;;11.30;1.00;;;;;;5086049;28;20211;-59
2022/10/31 06:29:52;;;;;;;16.37;14.67;;;11.40;1.00;;;;;;5087761;28;20197;-59
2022/10/31 06:32:18;;;;;;;16.80;14.77;;;;;;;;;;5089751;28;20455;-58
2022/10/31 06:34:47;;;;;;;16.63;14.40;;;11.40;1.00;;;;;;5090706;28;20203;-58
2022/10/31 06:37:13;;;;;;;16.27;14.07;;;11.40;1.00;;;;;;5090159;28;20797;-58
2022/10/31 06:39:39;;;;;;;15.40;13.83;;;11.50;1.00;;;;;;5089766;28;20453;-59
2022/10/31 06:42:05;;;;;;;19.23;14.17;;;11.50;1.00;;;;;;5085902;28;20475;-58
2022/10/31 06:44:31;;;;;;;19.47;15.33;;;11.50;1.00;;;;;;5091322;28;20189;-59
2022/10/31 06:46:59;;;;;;;15.90;14.20;;;11.50;1.00;;;;;;5094839;28;20797;-58
2022/10/31 06:49:25;;;;;;;26.60;16.33;;;11.50;1.00;;;;;;5093309;28;20272;-60
2022/10/31 06:51:50;;;;;;;16.13;14.43;;;11.60;1.00;;;;;;5094746;28;20538;-59
2022/10/31 06:54:16;;;;;;;16.40;13.73;;;11.60;1.00;;;;;;5094385;28;20227;-57
2022/10/31 06:56:42;;;;;;;15.47;13.83;;;11.70;1.00;;;;;;5092250;28;20200;-59
2022/10/31 06:59:07;;;;;;;16.33;14.33;;;11.70;1.00;;;;;;5093572;28;20581;-59
2022/10/31 07:01:33;;;;;;;15.07;13.67;;;11.70;1.00;;;;;;5091263;28;20194;-59
2022/10/31 07:03:59;;;;;;;15.20;12.43;;;11.80;1.00;;;;;;5094810;28;20201;-58
2022/10/31 07:06:24;;;;;;;15.77;13.70;;;11.80;1.00;;;;;;5089778;28;20217;-59
2022/10/31 07:08:50;;;;;;;17.37;12.37;;;11.90;1.00;;;;;;5094136;28;20189;-58
2022/10/31 07:11:16;;;;;;;14.70;13.23;;;12.00;1.00;;;;;;5088272;28;20213;-58
2022/10/31 07:13:41;;;;;;;13.60;12.20;;;11.90;1.00;;;;;;5092816;28;20193;-59
2022/10/31 07:16:07;;;;;;;14.30;12.53;;;12.00;1.00;;;;;;5091980;28;20499;-58
2022/10/31 07:18:33;;;;;;;15.17;12.70;;;12.00;1.00;;;;;;5093246;28;20187;-58
2022/10/31 07:20:59;;;;;;;14.43;12.80;;;12.00;1.00;;;;;;5091820;28;20190;-57
2022/10/31 07:23:24;;;;;;;13.47;12.07;;;12.10;1.00;;;;;;5093965;28;20835;-58
2022/10/31 07:25:56;;;;;;;15.60;12.50;;;12.20;1.00;;;;;;5094085;28;20738;-59
2022/10/31 07:28:21;;;;;;;14.20;12.83;;;12.20;1.00;;;;;;5090060;28;20732;-59
2022/10/31 07:30:51;;;;;;;16.30;11.90;;;12.20;1.00;;;;;;5089168;28;20431;-59
2022/10/31 07:33:16;;;;;;;13.47;12.27;;;12.30;1.00;;;;;;5091957;28;20216;-60
2022/10/31 07:35:42;;;;;;;13.53;12.13;;;12.40;1.00;;;;;;5092950;28;20511;-58
2022/10/31 07:38:12;;;;;;;15.00;12.27;;;12.50;1.00;;;;;;5091803;28;20307;-58
2022/10/31 07:40:38;;;;;;;13.83;12.53;;;12.50;1.00;;;;;;5094396;28;20188;-59
2022/10/31 07:43:04;;;;;;;13.27;11.93;;;12.60;1.00;;;;;;5092548;28;20450;-59
2022/10/31 07:45:30;;;;;;;13.50;12.20;;;;;;;;;;5086676;28;20422;-59
2022/10/31 07:47:56;;;;;;;13.10;11.80;;;12.80;1.00;;;;;;5093576;28;20212;-59
2022/10/31 07:50:26;;;;;;;13.47;12.07;;;12.80;1.00;;;;;;5091823;28;20532;-59
2022/10/31 07:53:06;;;;;;;13.70;12.37;;;12.90;1.00;;;;;;5093624;28;20260;-59
2022/10/31 07:55:32;;;;;;;12.03;10.83;;;13.10;1.00;;;;;;5091791;28;20558;-59
2022/10/31 07:58:05;;;;;;;13.30;11.80;;;13.10;1.00;;;;;;5091769;28;20513;-59
2022/10/31 08:00:33;;;;;;;12.50;11.20;;;13.30;1.00;;;;;;5086080;28;20427;-60
2022/10/31 08:03:02;;;;;;;16.40;12.67;;;13.30;1.00;;;;;;5091792;28;20459;-59
2022/10/31 08:05:28;;;;;;;12.43;11.30;;;13.40;1.00;;;;;;5090382;28;20520;-59
2022/10/31 08:07:54;;;;;;;13.40;11.60;;;13.50;1.00;;;;;;5088961;28;20444;-58
2022/10/31 08:10:21;;;;;;;12.67;11.40;;;13.60;1.00;;;;;;5090326;28;20425;-60
2022/10/31 08:12:47;;;;;;;12.47;11.27;;;13.70;1.00;;;;;;5092251;28;20428;-60
2022/10/31 08:15:13;;;;;;;12.20;10.87;;;13.90;1.00;;;;;;5084852;28;20423;-59
2022/10/31 08:17:38;;;;;;;11.57;10.47;;;14.00;1.00;;;;;;5089863;28;20442;-60
2022/10/31 08:20:05;;;;;;;11.80;10.60;;;14.20;1.00;;;;;;5089655;28;20678;-59
2022/10/31 08:22:31;;;;;;;12.30;11.20;;;14.60;1.00;;;;;;5087485;28;20190;-60
2022/10/31 08:24:56;;;;;;;12.13;11.03;;;15.00;1.00;;;;;;5090459;28;20448;-60
2022/10/31 08:27:22;;;;;;;11.27;10.30;;;15.50;1.00;;;;;;5087144;28;20245;-60
2022/10/31 08:29:48;;;;;;;11.47;10.30;;;;;;;;;;5091020;28;20197;-60
2022/10/31 08:32:14;;;;;;;11.10;10.00;;;15.80;1.00;;;;;;5089661;28;20670;-60
2022/10/31 08:34:39;;;;;;;11.77;10.57;;;15.90;1.00;;;;;;5091080;28;20410;-59
2022/10/31 08:37:05;;;;;;;12.97;11.77;;;;;;;;;;5087263;28;20197;-59
2022/10/31 08:39:31;;;;;;;13.33;11.50;;;;;;;;;;5089049;28;20191;-61
2022/10/31 08:41:57;;;;;;;13.07;11.77;;;15.70;1.00;;;;;;5090227;28;20449;-58
2022/10/31 08:44:24;;;;;;;12.17;11.00;;;15.50;1.00;;;;;;5091267;28;20432;-59
2022/10/31 08:46:49;;;;;;;11.37;10.27;;;15.50;1.00;;;;;;5090315;28;20207;-59
2022/10/31 08:49:15;;;;;;;12.57;11.37;;;15.50;1.00;;;;;;5091803;28;20451;-59
2022/10/31 08:51:40;;;;;;;12.67;10.80;;;15.60;1.00;;;;;;5090287;28;20183;-60
2022/10/31 08:54:06;;;;;;;13.93;12.57;;;15.70;1.00;;;;;;5089948;28;20241;-58
2022/10/31 08:56:31;;;;;;;12.80;11.40;;;15.60;1.00;;;;;;5093256;28;20204;-62
2022/10/31 08:58:57;;;;;;;13.17;10.23;;;15.60;1.00;;;;;;5093546;28;20213;-61
2022/10/31 09:01:23;;;;;;;12.13;11.10;;;15.70;1.00;;;;;;5091998;28;20520;-61
2022/10/31 09:03:48;;;;;;;11.10;10.10;;;15.80;1.00;;;;;;5091923;28;20332;-61
2022/10/31 09:06:14;;;;;;;12.43;9.53;;;16.00;1.00;;;;;;5090008;28;20198;-60
2022/10/31 09:08:39;;;;;;;14.00;10.70;;;16.10;1.00;;;;;;5093222;28;20261;-60
2022/10/31 09:11:06;;;;;;;11.93;10.57;;;16.10;1.00;;;;;;5092939;28;20653;-60
2022/10/31 09:13:32;;;;;;;14.63;10.57;;;16.20;1.00;;;;;;5093270;28;20631;-60
2022/10/31 09:16:00;;;;;;;12.20;11.00;;;16.20;1.00;;;;;;5093063;28;20475;-60
2022/10/31 09:18:29;;;;;;;11.20;10.20;;;16.30;1.00;;;;;;5092756;28;20192;-60
2022/10/31 09:20:58;;;;;;;13.13;11.03;;;16.60;1.00;;;;;;5091942;28;20417;-62
2022/10/31 09:23:24;;;;;;;12.63;10.60;;;16.80;1.00;;;;;;5093187;28;20416;-59
2022/10/31 09:25:51;;;;;;;10.83;9.93;;;16.80;1.00;;;;;;5091978;28;20492;-61
2022/10/31 09:28:19;;;;;;;11.60;9.00;;;16.90;1.00;;;;;;5092610;28;20208;-60
2022/10/31 09:30:47;;;;;;;15.63;10.20;;;17.00;1.00;;;;;;5086608;28;20753;-59
2022/10/31 09:33:13;;;;;;;10.80;9.70;;;17.10;1.00;;;;;;5093153;28;20455;-61
2022/10/31 09:35:40;;;;;;;10.53;9.50;;;17.30;1.00;;;;;;5093269;28;20500;-59
2022/10/31 09:38:11;;;;;;;11.73;10.40;;;17.40;1.00;;;;;;5093125;28;20443;-61
2022/10/31 09:40:43;;;;;;;13.07;10.50;;;17.40;1.00;;;;;;5089829;28;20989;-60
2022/10/31 09:43:18;;;;;;;9.73;8.70;;;17.40;1.00;;;;;;5092674;28;20435;-60
2022/10/31 09:45:59;;;;;;;10.33;9.33;;;17.70;1.00;;;;;;5086744;28;20414;-59
2022/10/31 09:48:40;;;;;;;10.47;9.50;;;17.70;1.00;;;;;;5092263;28;20480;-60
2022/10/31 09:51:09;;;;;;;10.30;9.00;;;17.80;1.00;;;;;;5088518;28;20469;-60
2022/10/31 09:53:38;;;;;;;10.63;9.53;;;17.80;1.00;;;;;;5091947;28;20450;-59
2022/10/31 09:56:09;;;;;;;9.80;8.77;;;18.00;1.00;;;;;;5091557;28;20413;-60
2022/10/31 09:58:53;;;;;;;9.53;8.53;;;18.20;1.00;;;;;;5092107;28;20968;-60
2022/10/31 10:01:39;;;;;;;10.33;8.23;;;18.30;1.00;;;;;;5093277;28;20453;-59
2022/10/31 10:04:31;;;;;;;8.93;7.83;;;18.30;1.00;;;;;;5091691;28;20999;-59
2022/10/31 10:06:58;;;;;;;10.33;8.70;;;18.40;1.00;;;;;;5090286;28;21395;-60
2022/10/31 10:09:26;;;;;;;10.73;8.63;;;18.40;1.00;;;;;;5090328;28;20453;-60
2022/10/31 10:12:22;;;;;;;10.10;8.13;;;18.50;1.00;;;;;;5091025;28;20429;-60
2022/10/31 10:15:19;;;;;;;13.90;8.30;;;18.60;1.00;;;;;;5079957;28;20415;-60
2022/10/31 10:18:00;;;;;;;10.33;8.47;;;18.60;1.00;;;;;;5090239;28;20433;-60
2022/10/31 10:20:46;;;;;;;10.37;7.93;;;18.80;1.00;;;;;;5088375;28;20417;-60
2022/10/31 10:23:17;;;;;;;8.77;7.77;;;18.90;1.00;;;;;;5092007;28;20448;-60
2022/10/31 10:25:49;;;;;;;10.30;8.40;;;19.00;1.00;;;;;;5092194;28;20432;-60
2022/10/31 10:28:21;;;;;;;8.30;7.50;;;19.10;1.00;;;;;;5091946;28;20838;-60
2022/10/31 10:31:10;;;;;;;8.50;7.70;;;19.10;1.00;;;;;;5090664;28;20415;-61
2022/10/31 10:33:45;;;;;;;8.83;7.40;;;19.50;1.00;;;;;;5091722;28;20429;-60
2022/10/31 10:36:26;;;;;;;8.63;7.80;;;19.50;1.00;;;;;;5092274;28;20443;-60
2022/10/31 10:39:04;;;;;;;9.00;7.80;;;19.70;1.00;;;;;;5090183;28;20454;-60
2022/10/31 10:41:33;;;;;;;12.93;8.13;;;19.90;1.00;;;;;;5086049;28;20433;-60
2022/10/31 10:43:58;;;;;;;10.60;7.43;;;20.00;1.00;;;;;;5089033;28;20426;-61
2022/10/31 10:49:51;;;;;;;12.60;7.40;;;20.10;1.00;;;;;;5089543;28;20262;-60
2022/10/31 10:52:37;;;;;;;9.00;7.67;;;20.10;1.00;;;;;;5091502;28;20471;-60
2022/10/31 10:55:29;;;;;;;8.93;7.47;;;20.10;1.00;;;;;;5088872;28;20427;-59
2022/10/31 10:58:00;;;;;;;11.67;7.73;;;20.10;1.00;;;;;;5085209;28;20426;-60
2022/10/31 11:00:35;;;;;;;9.17;7.63;;;20.00;1.00;;;;;;5086546;28;20879;-60
2022/10/31 11:03:02;;;;;;;9.53;7.70;;;19.90;1.00;;;;;;5091995;28;20547;-61
2022/10/31 11:05:36;;;;;;;12.00;8.10;;;20.10;1.00;;;;;;5089355;28;20846;-60
2022/10/31 11:08:02;;;;;;;10.17;7.80;;;20.10;1.00;;;;;;5090850;28;20473;-60
2022/10/31 11:10:28;;;;;;;8.67;7.77;;;20.30;1.00;;;;;;5090498;28;20447;-61
2022/10/31 11:13:21;;;;;;;9.70;8.30;;;20.30;1.00;;;;;;5085052;28;20476;-60
2022/10/31 11:16:01;;;;;;;12.30;8.10;;;20.50;1.00;;;;;;5085724;28;20259;-60
2022/10/31 11:18:30;;;;;;;12.30;8.17;;;20.70;1.00;;;;;;5090676;28;20929;-60
2022/10/31 11:20:59;;;;;;;10.17;7.40;;;20.90;1.00;;;;;;5091552;28;21111;-60
2022/10/31 11:23:27;;;;;;;12.00;8.97;;;20.80;1.00;;;;;;5089898;28;20448;-60
2022/10/31 11:25:56;;;;;;;13.03;10.00;;;20.80;1.00;;;;;;5095371;28;20422;-60
2022/10/31 11:28:22;;;;;;;14.13;9.87;;;21.00;1.00;;;;;;5094854;28;20463;-62
2022/10/31 11:30:57;;;;;;;15.83;9.57;;;21.00;1.00;;;;;;5095562;28;20403;-61
2022/10/31 11:33:37;;;;;;;17.50;10.10;;;20.90;1.00;;;;;;5095328;28;20224;-61
2022/10/31 11:36:20;;;;;;;16.80;11.00;;;20.90;1.00;;;;;;5094960;28;20475;-61
2022/10/31 11:38:46;;;;;;;14.83;10.47;;;20.80;1.00;;;;;;5094856;28;20443;-60
2022/10/31 11:41:25;;;;;;;17.00;11.73;;;21.00;1.00;;;;;;5094822;28;20473;-60
2022/10/31 11:43:55;;;;;;;16.77;11.53;;;21.00;1.00;;;;;;5094560;28;21098;-61
2022/10/31 11:46:34;;;;;;;18.60;12.50;;;21.00;1.00;;;;;;5093451;28;20451;-60
2022/10/31 11:49:01;;;;;;;19.07;12.53;;;21.00;1.00;;;;;;5094558;28;20424;-60
2022/10/31 11:51:33;;;;;;;16.77;11.23;;;20.90;1.00;;;;;;5094335;28;20500;-61
2022/10/31 11:54:02;;;;;;;23.90;11.70;;;;;;;;;;5092722;28;20794;-61
2022/10/31 11:56:36;;;;;;;13.37;10.10;;;20.80;1.00;;;;;;5093145;28;20933;-60
2022/10/31 11:59:16;;;;;;;15.70;10.73;;;20.90;1.00;;;;;;5089502;28;20413;-59
2022/10/31 12:01:48;;;;;;;14.13;9.60;;;21.20;1.00;;;;;;5093757;28;20539;-60
2022/10/31 12:04:14;;;;;;;14.40;9.77;;;21.20;1.00;;;;;;5093239;28;20444;-60
2022/10/31 12:06:45;;;;;;;20.63;10.60;;;21.10;1.00;;;;;;5094369;28;20512;-61
2022/10/31 12:09:17;;;;;;;16.07;9.40;;;21.00;1.00;;;;;;5090058;28;20433;-61
2022/10/31 12:11:57;;;;;;;13.37;10.10;;;21.40;1.00;;;;;;5093643;28;20905;-60
2022/10/31 12:15:02;;;;;;;14.10;9.77;;;21.00;1.00;;;;;;5093128;28;20410;-61
2022/10/31 12:17:37;;;;;;;11.63;8.40;;;21.00;1.00;;;;;;5090696;28;20451;-59
2022/10/31 12:20:28;;;;;;;13.57;9.40;;;20.90;1.00;;;;;;5089712;28;20427;-61
2022/10/31 12:23:08;;;;;;;16.67;10.00;;;20.90;1.00;;;;;;5090879;28;20501;-60
2022/10/31 12:25:44;;;;;;;11.67;8.80;;;21.00;1.00;;;;;;5093002;28;21107;-60
2022/10/31 12:28:31;;;;;;;14.30;9.00;;;21.00;1.00;;;;;;5092127;28;20459;-60
2022/10/31 12:31:09;;;;;;;16.97;13.10;;;21.10;1.00;;;;;;5087602;28;20414;-60
2022/10/31 12:33:44;;;;;;;16.07;10.63;;;21.10;1.00;;;;;;5092088;28;20527;-60
2022/10/31 12:36:54;;;;;;;12.90;10.10;;;21.30;1.00;;;;;;5089212;28;20419;-60
2022/10/31 12:39:28;;;;;;;12.20;8.70;;;21.50;1.00;;;;;;5080026;28;20459;-60
2022/10/31 12:42:11;;;;;;;9.33;8.40;;;21.70;1.00;;;;;;5089836;28;20428;-61
2022/10/31 12:44:59;;;;;;;13.50;8.70;;;21.60;1.00;;;;;;5090591;28;20451;-60
2022/10/31 12:47:46;;;;;;;11.23;8.20;;;21.70;1.00;;;;;;5091093;28;20482;-59
2022/10/31 12:50:39;;;;;;;14.00;8.60;;;21.60;1.00;;;;;;5091556;28;20406;-61
2022/10/31 12:53:33;;;;;;;13.43;8.33;;;21.70;1.00;;;;;;5089947;28;20572;-60
2022/10/31 12:56:26;;;;;;;12.20;8.43;;;21.50;1.00;;;;;;5087321;28;20426;-60
2022/10/31 12:59:00;;;;;;;15.57;8.60;;;21.50;1.00;;;;;;5089916;28;20418;-59
2022/10/31 13:01:47;;;;;;;17.97;7.40;;;21.50;1.00;;;;;;5092869;28;20409;-60
2022/10/31 13:04:46;;;;;;;14.43;7.40;;;21.40;1.00;;;;;;5090451;28;20419;-61